Time;durP1;ratioP1;P1;durP2;ratioP2;P2;SDS_P1;SDS_P2;PMS_P1;PMS_P2;Temp;Humidity;BMP_temperature;BMP_pressure;BME280_temperature;BME280_humidity;BME280_pressure;Samples;Min_cycle;Max_cycle;Signal;HPM_P1;HPM_P2
2021/05/10 00:00:01;;;;;;;;;;;;;;;19.86;52.53;99330.94;2205546;39;113965;-53
2021/05/10 00:01:32;;;;;;;;;;;;;;;19.92;52.45;99344.41;2208623;39;114023;-53
2021/05/10 00:03:04;;;;;;;;;;;;;;;19.98;52.18;99340.25;2206174;39;114229;-54
2021/05/10 00:04:35;;;;;;;;;;;;;;;20.01;52.37;99340.72;2213273;39;113694;-53
2021/05/10 00:06:06;;;;;;;;;;;;;;;20.05;52.42;99330.44;2209952;39;113958;-53
2021/05/10 00:07:39;;;;;;;;;;;;;;;20.08;52.03;99336.19;2210856;39;114005;-53
2021/05/10 00:09:10;;;;;;;;;;;;;;;20.11;51.98;99337.50;2200016;39;115523;-52
2021/05/10 00:10:42;;;;;;;;;;;;;;;20.15;51.82;99335.63;2204760;39;115360;-56
2021/05/10 00:12:13;;;;;;;;;;;;;;;20.18;51.76;99330.16;2207737;39;114930;-53
2021/05/10 00:13:48;;;;;;;;;;;;;;;20.21;51.62;99340.69;2203711;39;115701;-52
2021/05/10 00:15:19;;;;;;;;;;;;;;;20.21;51.38;99339.88;2204158;39;115141;-52
2021/05/10 00:16:50;;;;;;;;;;;;;;;20.20;51.19;99344.66;2208659;39;114650;-53
2021/05/10 00:18:23;;;;;;;;;;;;;;;20.24;51.60;99344.78;2210287;39;115226;-54
2021/05/10 00:19:56;;;;;;;;;;;;;;;20.23;51.46;99343.13;2207659;39;114140;-52
2021/05/10 00:21:28;;;;;;;;;;;;;;;20.24;51.18;99345.59;2207504;39;116067;-52
2021/05/10 00:22:59;;;;;;;;;;;;;;;20.25;51.20;99352.84;2211007;39;114700;-53
2021/05/10 00:24:32;;;;;;;;;;;;;;;20.26;51.44;99350.88;2208344;39;115287;-53
2021/05/10 00:26:05;;;;;;;;;;;;;;;20.27;51.59;99360.91;2212000;39;114849;-52
2021/05/10 00:27:37;;;;;;;;;;;;;;;20.27;51.54;99352.50;2208720;39;114739;-53
2021/05/10 00:29:09;;;;;;;;;;;;;;;20.27;51.12;99349.69;2206568;39;114587;-53
2021/05/10 00:30:41;;;;;;;;;;;;;;;20.26;51.25;99359.28;2206162;39;116148;-53
2021/05/10 00:32:15;;;;;;;;;;;;;;;20.28;51.34;99357.75;2209000;39;115655;-52
2021/05/10 00:33:46;;;;;;;;;;;;;;;20.27;51.68;99356.13;2207620;39;115541;-53
2021/05/10 00:35:19;;;;;;;;;;;;;;;20.26;51.29;99346.06;2209896;39;115502;-53
2021/05/10 00:38:25;;;;;;;;;;;;;;;20.26;51.66;99348.88;2209826;39;116165;-53
2021/05/10 00:39:56;;;;;;;;;;;;;;;20.26;51.42;99342.47;2208858;39;115527;-53
2021/05/10 00:41:27;;;;;;;;;;;;;;;20.25;51.76;99340.81;2211102;39;116189;-53
2021/05/10 00:43:00;;;;;;;;;;;;;;;20.25;51.90;99346.41;2207124;39;114828;-53
2021/05/10 00:44:31;;;;;;;;;;;;;;;20.26;51.44;99345.25;2210409;39;115603;-53
2021/05/10 00:46:03;;;;;;;;;;;;;;;20.25;51.68;99347.25;2205133;39;115660;-53
2021/05/10 00:47:35;;;;;;;;;;;;;;;20.25;51.80;99352.03;2212731;39;115993;-53
2021/05/10 00:49:07;;;;;;;;;;;;;;;20.24;51.61;99345.59;2204514;39;113897;-53
2021/05/10 00:50:40;;;;;;;;;;;;;;;20.23;51.85;99346.75;2205885;39;113776;-53
2021/05/10 00:52:12;;;;;;;;;;;;;;;20.22;51.40;99347.09;2208182;39;113690;-53
2021/05/10 00:53:44;;;;;;;;;;;;;;;20.23;51.65;99366.38;2210300;39;114033;-53
2021/05/10 00:55:15;;;;;;;;;;;;;;;20.22;52.19;99364.75;2210238;39;113788;-54
2021/05/10 00:56:47;;;;;;;;;;;;;;;20.24;51.84;99361.59;2204068;39;114036;-53
2021/05/10 00:58:18;;;;;;;;;;;;;;;20.23;51.64;99357.16;2205662;39;113812;-52
2021/05/10 00:59:51;;;;;;;;;;;;;;;20.24;51.50;99372.81;2210558;39;114272;-53
2021/05/10 01:01:23;;;;;;;;;;;;;;;20.24;51.59;99372.81;2203778;39;113962;-53
2021/05/10 01:02:57;;;;;;;;;;;;;;;20.22;51.59;99373.16;2210643;39;114036;-53
2021/05/10 01:04:28;;;;;;;;;;;;;;;20.21;51.67;99368.75;2207196;39;114396;-53
2021/05/10 01:06:01;;;;;;;;;;;;;;;20.22;51.91;99373.16;2208255;39;113714;-52
2021/05/10 01:07:34;;;;;;;;;;;;;;;20.24;51.48;99384.03;2210725;39;113839;-53
2021/05/10 01:09:06;;;;;;;;;;;;;;;20.23;51.47;99373.97;2210524;39;114088;-53
2021/05/10 01:10:37;;;;;;;;;;;;;;;20.22;51.87;99386.34;2206007;39;115023;-53
2021/05/10 01:12:10;;;;;;;;;;;;;;;20.22;51.51;99377.94;2210714;39;114815;-52
2021/05/10 01:13:42;;;;;;;;;;;;;;;20.24;51.71;99392.44;2203436;39;115097;-53
2021/05/10 01:15:14;;;;;;;;;;;;;;;20.23;51.56;99385.19;2202749;39;114708;-53
2021/05/10 01:16:46;;;;;;;;;;;;;;;20.25;51.12;99385.69;2200080;39;114884;-53
2021/05/10 01:18:19;;;;;;;;;;;;;;;20.25;51.53;99388.50;2206102;39;114016;-52
2021/05/10 01:19:51;;;;;;;;;;;;;;;20.23;51.29;99390.81;2210181;39;115695;-53
2021/05/10 01:21:25;;;;;;;;;;;;;;;20.23;51.33;99394.44;2209395;39;114823;-52
2021/05/10 01:22:58;;;;;;;;;;;;;;;20.23;51.57;99399.22;2210535;39;115428;-53
2021/05/10 01:24:29;;;;;;;;;;;;;;;20.22;51.67;99397.56;2210834;39;113951;-53
2021/05/10 01:26:01;;;;;;;;;;;;;;;20.22;51.89;99408.78;2209266;39;114951;-53
2021/05/10 01:27:32;;;;;;;;;;;;;;;20.24;51.07;99400.88;2205942;39;115301;-53
2021/05/10 01:29:04;;;;;;;;;;;;;;;20.25;51.14;99394.09;2205493;39;115077;-53
2021/05/10 01:30:38;;;;;;;;;;;;;;;20.23;51.52;99397.25;2213447;39;114708;-52
2021/05/10 01:32:09;;;;;;;;;;;;;;;20.24;51.29;99398.06;2204396;39;115454;-52
2021/05/10 01:33:42;;;;;;;;;;;;;;;20.28;51.26;99397.03;2208403;39;115555;-53
2021/05/10 01:35:17;;;;;;;;;;;;;;;20.26;50.93;99390.94;2207926;39;115787;-52
2021/05/10 01:36:49;;;;;;;;;;;;;;;20.22;51.58;99395.59;2208815;39;116164;-53
2021/05/10 01:38:21;;;;;;;;;;;;;;;20.24;51.50;99384.88;2205769;39;114374;-53
2021/05/10 01:39:53;;;;;;;;;;;;;;;20.26;51.12;99388.13;2207102;39;114702;-53
2021/05/10 01:41:24;;;;;;;;;;;;;;;20.26;51.34;99379.72;2201927;39;115840;-52
2021/05/10 01:42:56;;;;;;;;;;;;;;;20.29;51.18;99389.44;2204512;39;115581;-53
2021/05/10 01:44:28;;;;;;;;;;;;;;;20.28;51.37;99387.78;2205024;39;114359;-53
2021/05/10 01:45:59;;;;;;;;;;;;;;;20.25;51.64;99392.13;2207317;39;116029;-53
2021/05/10 01:47:30;;;;;;;;;;;;;;;20.25;51.62;99380.06;2205784;39;115886;-53
2021/05/10 01:49:02;;;;;;;;;;;;;;;20.26;51.86;99381.72;2205521;39;115570;-53
2021/05/10 01:50:34;;;;;;;;;;;;;;;20.26;50.94;99376.13;2207029;39;115593;-53
2021/05/10 01:52:05;;;;;;;;;;;;;;;20.28;51.15;99379.38;2205322;39;115655;-52
2021/05/10 01:53:37;;;;;;;;;;;;;;;20.26;51.77;99376.13;2208646;39;114698;-53
2021/05/10 01:55:09;;;;;;;;;;;;;;;20.28;51.42;99380.19;2215494;39;113821;-53
2021/05/10 01:56:41;;;;;;;;;;;;;;;20.31;51.23;99378.72;2210217;39;113891;-53
2021/05/10 01:58:12;;;;;;;;;;;;;;;20.27;51.21;99378.56;2210174;39;113708;-52
2021/05/10 01:59:44;;;;;;;;;;;;;;;20.26;51.24;99371.28;2208678;39;113534;-53
2021/05/10 02:01:15;;;;;;;;;;;;;;;20.24;51.38;99368.03;2207110;39;113926;-53
2021/05/10 02:02:47;;;;;;;;;;;;;;;20.24;51.32;99368.03;2213193;39;113820;-53
2021/05/10 02:04:18;;;;;;;;;;;;;;;20.26;51.04;99367.69;2212714;39;113858;-52
2021/05/10 02:05:51;;;;;;;;;;;;;;;20.25;51.59;99374.47;2210574;39;116824;-53
2021/05/10 02:07:22;;;;;;;;;;;;;;;20.26;51.61;99376.91;2208872;39;113734;-53
2021/05/10 02:08:53;;;;;;;;;;;;;;;20.26;51.51;99376.13;2205913;39;113759;-52
2021/05/10 02:10:28;;;;;;;;;;;;;;;20.26;51.57;99371.28;2207005;39;113853;-53
2021/05/10 02:12:00;;;;;;;;;;;;;;;20.25;51.71;99380.91;2211031;39;113707;-53
2021/05/10 02:13:33;;;;;;;;;;;;;;;20.25;51.49;99380.91;2208717;39;113758;-52
2021/05/10 02:15:05;;;;;;;;;;;;;;;20.27;51.05;99381.34;2214879;39;113701;-53
2021/05/10 02:16:37;;;;;;;;;;;;;;;20.26;51.07;99378.91;2209923;39;113849;-53
2021/05/10 02:18:10;;;;;;;;;;;;;;;20.24;51.22;99381.22;2214306;39;114306;-53
2021/05/10 02:19:42;;;;;;;;;;;;;;;20.25;51.00;99380.91;2207832;39;115073;-53
2021/05/10 02:21:14;;;;;;;;;;;;;;;20.25;51.26;99382.88;2214905;39;115103;-53
2021/05/10 02:22:49;;;;;;;;;;;;;;;20.25;51.38;99377.28;2208817;39;115842;-53
2021/05/10 02:24:21;;;;;;;;;;;;;;;20.25;51.06;99380.06;2213555;39;114981;-53
2021/05/10 02:25:53;;;;;;;;;;;;;;;20.24;50.81;99384.03;2210065;39;114889;-52
2021/05/10 02:27:25;;;;;;;;;;;;;;;20.23;51.14;99388.81;2207820;39;115155;-52
2021/05/10 02:29:01;;;;;;;;;;;;;;;20.25;51.40;99399.72;2207151;39;114921;-52
2021/05/10 02:30:33;;;;;;;;;;;;;;;20.24;51.13;99387.66;2208450;39;114788;-52
2021/05/10 02:32:05;;;;;;;;;;;;;;;20.23;51.09;99388.00;2197867;39;114064;-52
2021/05/10 02:33:36;;;;;;;;;;;;;;;20.22;51.32;99381.56;2211648;39;114393;-52
2021/05/10 02:35:08;;;;;;;;;;;;;;;20.22;51.18;99389.97;2216469;39;113917;-53
2021/05/10 02:36:40;;;;;;;;;;;;;;;20.21;50.85;99388.38;2218104;39;115040;-53
2021/05/10 02:38:12;;;;;;;;;;;;;;;20.24;50.90;99386.84;2214547;39;115723;-53
2021/05/10 02:39:45;;;;;;;;;;;;;;;20.23;50.93;99388.00;2208207;39;115908;-53
2021/05/10 02:41:16;;;;;;;;;;;;;;;20.23;51.34;99386.03;2214990;39;114680;-53
2021/05/10 02:42:49;;;;;;;;;;;;;;;20.21;51.08;99384.75;2216426;39;116193;-53
2021/05/10 02:44:20;;;;;;;;;;;;;;;20.23;50.76;99394.44;2215790;39;114628;-53
2021/05/10 02:45:52;;;;;;;;;;;;;;;20.24;50.76;99382.06;2205577;39;115776;-52
2021/05/10 02:47:23;;;;;;;;;;;;;;;20.24;50.88;99395.25;2210566;39;114973;-52
2021/05/10 02:48:56;;;;;;;;;;;;;;;20.21;51.19;99391.16;2214258;39;115509;-53
2021/05/10 02:50:28;;;;;;;;;;;;;;;20.22;50.55;99398.41;2214356;39;115572;-53
2021/05/10 02:52:00;;;;;;;;;;;;;;;20.20;51.33;99397.13;2215069;39;115518;-52
2021/05/10 02:53:34;;;;;;;;;;;;;;;20.22;51.25;99401.19;2216226;39;115793;-53
2021/05/10 02:55:06;;;;;;;;;;;;;;;20.24;51.14;99401.69;2206576;39;115856;-52
2021/05/10 02:56:38;;;;;;;;;;;;;;;20.23;50.89;99402.03;2207479;39;114673;-52
2021/05/10 02:58:10;;;;;;;;;;;;;;;20.23;50.79;99413.25;2212880;39;115711;-53
2021/05/10 02:59:42;;;;;;;;;;;;;;;20.22;50.46;99404.00;2210085;39;114090;-53
2021/05/10 03:01:13;;;;;;;;;;;;;;;20.22;50.51;99398.41;2208582;39;113888;-52
2021/05/10 03:02:45;;;;;;;;;;;;;;;20.24;50.75;99398.06;2215196;39;113898;-52
2021/05/10 03:04:16;;;;;;;;;;;;;;;20.24;50.52;99406.47;2217190;39;113636;-53
2021/05/10 03:05:48;;;;;;;;;;;;;;;20.24;50.58;99403.66;2217594;39;113731;-53
2021/05/10 03:07:20;;;;;;;;;;;;;;;20.22;50.91;99406.81;2217236;39;113982;-53
2021/05/10 03:08:51;;;;;;;;;;;;;;;20.21;50.67;99405.19;2217525;39;113674;-53
2021/05/10 03:10:23;;;;;;;;;;;;;;;20.20;50.19;99400.75;2217654;39;114027;-52
2021/05/10 03:11:55;;;;;;;;;;;;;;;20.23;50.23;99404.81;2210709;39;113715;-53
2021/05/10 03:13:26;;;;;;;;;;;;;;;20.23;50.42;99402.03;2215772;39;113726;-53
2021/05/10 03:14:59;;;;;;;;;;;;;;;20.20;50.71;99409.16;2217066;39;114146;-53
2021/05/10 03:16:30;;;;;;;;;;;;;;;20.19;50.46;99404.69;2210366;39;113884;-52
2021/05/10 03:18:03;;;;;;;;;;;;;;;20.19;50.68;99407.50;2205826;39;115472;-54
2021/05/10 03:19:39;;;;;;;;;;;;;;;20.23;50.43;99404.81;2213571;39;113701;-53
2021/05/10 03:21:11;;;;;;;;;;;;;;;20.20;50.82;99413.94;2220155;39;113839;-53
2021/05/10 03:22:43;;;;;;;;;;;;;;;20.23;50.57;99414.06;2210316;39;114947;-53
2021/05/10 03:24:14;;;;;;;;;;;;;;;20.23;50.64;99416.03;2215929;39;114996;-53
2021/05/10 03:25:46;;;;;;;;;;;;;;;20.21;50.55;99424.81;2214350;39;115593;-52
2021/05/10 03:27:17;;;;;;;;;;;;;;;20.19;50.45;99424.34;2217093;39;115081;-52
2021/05/10 03:28:48;;;;;;;;;;;;;;;20.19;50.36;99426.31;2214600;39;114030;-53
2021/05/10 03:30:21;;;;;;;;;;;;;;;20.20;50.57;99428.78;2217577;39;115033;-53
2021/05/10 03:31:53;;;;;;;;;;;;;;;20.21;50.54;99435.22;2213557;39;116183;-52
2021/05/10 03:33:25;;;;;;;;;;;;;;;20.20;50.43;99428.78;2215128;39;114956;-52
2021/05/10 03:34:57;;;;;;;;;;;;;;;20.20;50.48;99439.19;2216227;39;115232;-54
2021/05/10 03:36:28;;;;;;;;;;;;;;;20.21;50.12;99440.81;2202981;39;115119;-52
2021/05/10 03:37:59;;;;;;;;;;;;;;;20.19;50.45;99441.16;2212782;39;114766;-53
2021/05/10 03:39:31;;;;;;;;;;;;;;;20.18;50.42;99447.94;2213497;39;113836;-53
2021/05/10 03:41:02;;;;;;;;;;;;;;;20.19;49.99;99443.13;2216754;39;113862;-52
2021/05/10 03:42:34;;;;;;;;;;;;;;;20.21;50.28;99443.63;2213207;39;115003;-52
2021/05/10 03:44:07;;;;;;;;;;;;;;;20.20;50.38;99450.41;2215381;39;116221;-53
2021/05/10 03:45:38;;;;;;;;;;;;;;;20.18;49.85;99447.94;2217815;39;114646;-52
2021/05/10 03:47:10;;;;;;;;;;;;;;;20.19;49.95;99449.56;2212967;39;115595;-53
2021/05/10 03:48:41;;;;;;;;;;;;;;;20.17;49.85;99439.88;2214561;39;114939;-54
2021/05/10 03:50:15;;;;;;;;;;;;;;;20.18;50.20;99438.69;2216655;39;116058;-52
2021/05/10 03:51:47;;;;;;;;;;;;;;;20.16;50.08;99441.84;2217855;39;115993;-53
2021/05/10 03:53:19;;;;;;;;;;;;;;;20.19;50.20;99438.34;2216866;39;115520;-53
2021/05/10 03:54:50;;;;;;;;;;;;;;;20.17;49.79;99437.06;2211592;39;115458;-53
2021/05/10 03:56:22;;;;;;;;;;;;;;;20.18;50.35;99435.88;2218087;39;114699;-52
2021/05/10 03:57:56;;;;;;;;;;;;;;;20.16;49.86;99430.63;2217720;39;115987;-52
2021/05/10 03:59:27;;;;;;;;;;;;;;;20.17;49.71;99431.47;2213341;39;115647;-53
2021/05/10 04:00:58;;;;;;;;;;;;;;;20.16;50.18;99433.44;2213585;39;115488;-53
2021/05/10 04:02:32;;;;;;;;;;;;;;;20.17;49.77;99440.66;2217812;39;116388;-53
2021/05/10 04:04:16;;;;;;;;;;;;;;;20.19;50.08;99448.75;2218482;39;115975;-53
2021/05/10 04:06:04;;;;;;;;;;;;;;;20.18;50.13;99447.09;2217921;39;113845;-53
2021/05/10 04:13:57;;;;;;;;;;;;;;;20.15;50.62;99445.00;2217687;39;113713;-53
2021/05/10 04:15:28;;;;;;;;;;;;;;;20.16;50.53;99450.28;2216244;39;114151;-53
2021/05/10 04:16:59;;;;;;;;;;;;;;;20.14;50.65;99449.78;2217209;39;113624;-53
2021/05/10 04:18:31;;;;;;;;;;;;;;;20.15;50.70;99448.63;2218198;39;113848;-53
2021/05/10 04:20:03;;;;;;;;;;;;;;;20.15;50.75;99442.19;2210434;39;114372;-53
2021/05/10 04:21:34;;;;;;;;;;;;;;;20.16;50.76;99455.88;2209423;39;113982;-52
2021/05/10 04:23:06;;;;;;;;;;;;;;;20.15;51.14;99453.41;2215277;39;114114;-53
2021/05/10 04:24:38;;;;;;;;;;;;;;;20.17;50.67;99456.69;2217142;39;113834;-53
2021/05/10 04:26:09;;;;;;;;;;;;;;;20.17;50.71;99463.09;2212900;39;116104;-52
2021/05/10 04:27:41;;;;;;;;;;;;;;;20.17;50.66;99468.72;2214985;39;115028;-52
2021/05/10 04:29:12;;;;;;;;;;;;;;;20.17;50.36;99468.72;2217602;39;114773;-52
2021/05/10 04:30:44;;;;;;;;;;;;;;;20.16;50.55;99463.47;2217727;39;114922;-52
2021/05/10 04:32:17;;;;;;;;;;;;;;;20.15;50.91;99473.84;2210279;39;114233;-52
2021/05/10 04:33:48;;;;;;;;;;;;;;;20.16;50.82;99483.09;2202519;39;114973;-53
2021/05/10 04:35:19;;;;;;;;;;;;;;;20.16;50.47;99485.91;2215184;39;115006;-52
2021/05/10 04:36:51;;;;;;;;;;;;;;;20.15;50.30;99482.28;2212653;39;114892;-53
2021/05/10 04:38:23;;;;;;;;;;;;;;;20.17;50.61;99479.94;2215115;39;115384;-53
2021/05/10 04:39:54;;;;;;;;;;;;;;;20.14;50.81;99482.59;2206729;39;114707;-53
2021/05/10 04:41:25;;;;;;;;;;;;;;;20.17;50.22;99476.34;2210470;39;114807;-53
2021/05/10 04:42:57;;;;;;;;;;;;;;;20.16;50.56;99488.69;2212814;39;115172;-54
2021/05/10 04:44:29;;;;;;;;;;;;;;;20.12;50.33;99485.75;2212527;39;114926;-53
2021/05/10 04:46:01;;;;;;;;;;;;;;;20.15;50.68;99484.25;2210397;39;115860;-53
2021/05/10 04:49:06;;;;;;;;;;;;;;;20.13;50.40;99483.75;2211474;39;114486;-52
2021/05/10 04:50:38;;;;;;;;;;;;;;;20.14;50.48;99483.41;2211815;39;116277;-53
2021/05/10 04:52:09;;;;;;;;;;;;;;;20.14;50.23;99482.59;2211930;39;115010;-52
2021/05/10 04:53:40;;;;;;;;;;;;;;;20.15;50.63;99493.47;2215439;39;115956;-53
2021/05/10 04:55:12;;;;;;;;;;;;;;;20.14;50.27;99488.22;2217855;39;115748;-53
2021/05/10 04:56:44;;;;;;;;;;;;;;;20.15;50.60;99485.06;2207730;39;115488;-54
2021/05/10 04:58:15;;;;;;;;;;;;;;;20.14;50.47;99482.59;2213108;39;115181;-52
2021/05/10 04:59:46;;;;;;;;;;;;;;;20.15;50.29;99481.44;2215105;39;115133;-53
2021/05/10 05:01:18;;;;;;;;;;;;;;;20.14;50.44;99477.81;2214152;39;115512;-53
2021/05/10 05:02:50;;;;;;;;;;;;;;;20.14;50.45;99491.00;2217561;39;115409;-53
2021/05/10 05:04:21;;;;;;;;;;;;;;;20.15;50.18;99487.88;2210673;39;115514;-52
2021/05/10 05:05:54;;;;;;;;;;;;;;;20.14;50.38;99486.22;2210081;39;116293;-53
2021/05/10 05:07:25;;;;;;;;;;;;;;;20.14;50.39;99489.03;2208315;39;115471;-53
2021/05/10 05:08:56;;;;;;;;;;;;;;;20.16;50.39;99488.69;2215151;39;115674;-52
2021/05/10 05:10:29;;;;;;;;;;;;;;;20.13;50.41;99480.94;2217014;39;115625;-53
2021/05/10 05:12:00;;;;;;;;;;;;;;;20.15;50.61;99470.22;2213074;39;113636;-53
2021/05/10 05:13:34;;;;;;;;;;;;;;;20.14;50.54;99471.38;2216371;39;114029;-53
2021/05/10 05:15:06;;;;;;;;;;;;;;;20.15;50.40;99473.84;2211674;39;113736;-52
2021/05/10 05:16:37;;;;;;;;;;;;;;;20.16;50.38;99483.91;2217106;39;113734;-52
2021/05/10 05:18:09;;;;;;;;;;;;;;;20.16;50.23;99489.53;2205057;39;113787;-52
2021/05/10 05:19:40;;;;;;;;;;;;;;;20.18;50.12;99489.16;2212457;39;114452;-53
2021/05/10 05:21:11;;;;;;;;;;;;;;;20.17;49.91;99490.34;2217278;39;113656;-52
2021/05/10 05:22:43;;;;;;;;;;;;;;;20.17;50.28;99491.16;2209150;39;113997;-52
2021/05/10 05:24:14;;;;;;;;;;;;;;;20.16;50.14;99489.53;2207420;39;113966;-53
2021/05/10 05:25:46;;;;;;;;;;;;;;;20.15;50.30;99493.47;2207678;39;113863;-52
2021/05/10 05:27:17;;;;;;;;;;;;;;;20.13;50.41;99490.19;2213125;39;114260;-53
2021/05/10 05:28:48;;;;;;;;;;;;;;;20.16;50.09;99485.91;2212813;39;114173;-53
2021/05/10 05:30:20;;;;;;;;;;;;;;;20.15;49.79;99490.69;2212245;39;113974;-56
2021/05/10 05:31:52;;;;;;;;;;;;;;;20.17;50.23;99496.75;2213968;39;113819;-52
2021/05/10 05:33:25;;;;;;;;;;;;;;;20.17;49.96;99498.75;2210199;39;115205;-53
2021/05/10 05:34:57;;;;;;;;;;;;;;;20.16;49.82;99497.94;2204169;39;113983;-53
2021/05/10 05:36:28;;;;;;;;;;;;;;;20.17;50.16;99507.19;2212861;39;114837;-53
2021/05/10 05:38:00;;;;;;;;;;;;;;;20.17;49.86;99502.34;2210293;39;115016;-53
2021/05/10 05:39:31;;;;;;;;;;;;;;;20.16;50.13;99509.16;2213692;39;115529;-53
2021/05/10 05:41:04;;;;;;;;;;;;;;;20.17;49.96;99509.97;2210237;39;113941;-52
2021/05/10 05:42:36;;;;;;;;;;;;;;;20.16;50.38;99511.97;2213656;39;114945;-53
2021/05/10 05:44:07;;;;;;;;;;;;;;;20.13;50.00;99518.22;2212113;39;114850;-52
2021/05/10 05:45:39;;;;;;;;;;;;;;;20.12;50.19;99518.59;2217737;39;115115;-52
2021/05/10 05:47:16;;;;;;;;;;;;;;;20.15;50.29;99523.50;2210495;39;115061;-53
2021/05/10 05:48:48;;;;;;;;;;;;;;;20.14;50.06;99525.50;2214322;39;114810;-53
2021/05/10 05:50:20;;;;;;;;;;;;;;;20.16;50.10;99528.78;2216280;39;115298;-53
2021/05/10 05:51:58;;;;;;;;;;;;;;;20.14;50.27;99525.50;2217025;39;115052;-52
2021/05/10 05:53:29;;;;;;;;;;;;;;;20.14;50.34;99528.28;2219109;39;115117;-53
2021/05/10 05:55:01;;;;;;;;;;;;;;;20.15;50.15;99532.75;2217173;39;115802;-53
2021/05/10 05:56:33;;;;;;;;;;;;;;;20.17;50.16;99526.81;2217426;39;115638;-57
2021/05/10 05:58:06;;;;;;;;;;;;;;;20.15;50.08;99531.91;2217172;39;116178;-52
2021/05/10 05:59:38;;;;;;;;;;;;;;;20.14;50.24;99533.06;2217411;39;116392;-53
2021/05/10 06:01:09;;;;;;;;;;;;;;;20.14;50.25;99530.28;2217476;39;115445;-53
2021/05/10 06:02:41;;;;;;;;;;;;;;;20.12;50.42;99535.41;2212168;39;114608;-52
2021/05/10 06:04:13;;;;;;;;;;;;;;;20.13;50.45;99529.44;2217637;39;115726;-52
2021/05/10 06:05:45;;;;;;;;;;;;;;;20.13;50.27;99540.66;2205344;39;115474;-53
2021/05/10 06:07:17;;;;;;;;;;;;;;;20.12;50.51;99527.81;2213486;39;114969;-53
2021/05/10 06:08:48;;;;;;;;;;;;;;;20.11;50.56;99542.19;2217058;39;114622;-53
2021/05/10 06:10:23;;;;;;;;;;;;;;;20.13;50.23;99539.84;2207960;39;115683;-53
2021/05/10 06:11:55;;;;;;;;;;;;;;;20.14;50.32;99531.09;2203341;39;115688;-53
2021/05/10 06:13:27;;;;;;;;;;;;;;;20.13;50.39;99540.66;2210468;39;115859;-52
2021/05/10 06:14:59;;;;;;;;;;;;;;;20.14;50.54;99547.09;2219230;39;115440;-53
2021/05/10 06:16:31;;;;;;;;;;;;;;;20.13;50.51;99537.84;2210184;39;114272;-54
2021/05/10 06:18:03;;;;;;;;;;;;;;;20.12;50.64;99546.63;2204029;39;113833;-53
2021/05/10 06:19:34;;;;;;;;;;;;;;;20.12;50.48;99549.44;2209492;39;113902;-52
2021/05/10 06:21:07;;;;;;;;;;;;;;;20.14;50.50;99549.91;2215090;39;114638;-53
2021/05/10 06:22:40;;;;;;;;;;;;;;;20.12;50.58;99543.81;2209813;39;114097;-53
2021/05/10 06:24:11;;;;;;;;;;;;;;;20.11;50.67;99551.41;2206300;39;114030;-53
2021/05/10 06:25:42;;;;;;;;;;;;;;;20.09;50.59;99555.69;2212323;39;114183;-51
2021/05/10 06:27:18;;;;;;;;;;;;;;;20.12;50.24;99552.25;2211253;39;113928;-53
2021/05/10 06:28:50;;;;;;;;;;;;;;;20.07;50.29;99550.44;2214654;39;113996;-52
2021/05/10 06:30:21;;;;;;;;;;;;;;;20.12;50.43;99564.28;2216826;39;114039;-53
2021/05/10 06:31:53;;;;;;;;;;;;;;;20.11;50.31;99554.22;2211171;39;113815;-53
2021/05/10 06:33:24;;;;;;;;;;;;;;;20.13;50.63;99570.69;2215826;39;113865;-53
2021/05/10 06:34:55;;;;;;;;;;;;;;;20.13;50.40;99565.91;2217336;39;114029;-53
2021/05/10 06:36:28;;;;;;;;;;;;;;;20.18;50.94;99562.91;2217928;39;113991;-52
2021/05/10 06:37:59;;;;;;;;;;;;;;;20.24;50.73;99574.75;2213656;39;113708;-54
2021/05/10 06:39:30;;;;;;;;;;;;;;;20.33;50.49;99578.34;2213603;39;114889;-53
2021/05/10 06:41:02;;;;;;;;;;;;;;;20.36;50.27;99575.69;2217798;39;114898;-53
2021/05/10 06:42:33;;;;;;;;;;;;;;;20.38;50.16;99576.16;2216008;39;114862;-53
2021/05/10 06:44:05;;;;;;;;;;;;;;;20.38;50.31;99586.56;2216896;39;115013;-53
2021/05/10 06:45:36;;;;;;;;;;;;;;;20.39;50.28;99574.19;2217744;39;114542;-53
2021/05/10 06:47:08;;;;;;;;;;;;;;;20.39;49.84;99571.38;2218244;39;115252;-55
2021/05/10 06:48:39;;;;;;;;;;;;;;;20.38;49.91;99570.56;2206514;39;114936;-53
2021/05/10 06:50:11;;;;;;;;;;;;;;;20.37;49.96;99577.34;2202442;39;115498;-52
2021/05/10 06:51:42;;;;;;;;;;;;;;;20.39;49.89;99568.59;2209970;39;115411;-52
2021/05/10 06:53:14;;;;;;;;;;;;;;;20.40;50.11;99575.81;2212824;39;114798;-52
2021/05/10 06:54:47;;;;;;;;;;;;;;;20.39;50.23;99571.38;2217994;39;114832;-53
2021/05/10 06:56:18;;;;;;;;;;;;;;;20.38;50.18;99567.75;2218337;39;114835;-53
2021/05/10 06:57:52;;;;;;;;;;;;;;;20.39;49.95;99572.22;2211913;39;114533;-53
2021/05/10 06:59:24;;;;;;;;;;;;;;;20.41;50.06;99580.25;2213663;39;114873;-53
2021/05/10 07:00:57;;;;;;;;;;;;;;;20.44;50.18;99579.59;2215797;39;116141;-53
2021/05/10 07:02:28;;;;;;;;;;;;;;;20.46;49.87;99570.81;2213915;39;116681;-53
2021/05/10 07:04:01;;;;;;;;;;;;;;;20.47;49.90;99573.31;2216227;39;115728;-53
2021/05/10 07:05:34;;;;;;;;;;;;;;;20.50;49.59;99577.41;2215992;39;115238;-53
2021/05/10 07:07:05;;;;;;;;;;;;;;;20.53;49.12;99571.94;2216598;39;114743;-53
2021/05/10 07:08:37;;;;;;;;;;;;;;;20.55;49.32;99575.22;2217040;39;114727;-52
2021/05/10 07:10:09;;;;;;;;;;;;;;;20.58;49.18;99574.53;2217727;39;115692;-53
2021/05/10 07:11:40;;;;;;;;;;;;;;;20.60;49.12;99583.44;2216228;39;116325;-53
2021/05/10 07:13:12;;;;;;;;;;;;;;;20.63;49.18;99579.09;2215680;39;115872;-53
2021/05/10 07:14:43;;;;;;;;;;;;;;;20.64;49.00;99584.38;2217040;39;115868;-53
2021/05/10 07:16:16;;;;;;;;;;;;;;;20.64;48.87;99580.75;2215027;39;115701;-53
2021/05/10 07:17:47;;;;;;;;;;;;;;;20.66;49.10;99586.88;2207161;39;115581;-53
2021/05/10 07:19:19;;;;;;;;;;;;;;;20.65;48.65;99588.84;2214384;39;114914;-53
2021/05/10 07:20:52;;;;;;;;;;;;;;;20.66;48.72;99587.69;2218655;39;115485;-53
2021/05/10 07:22:23;;;;;;;;;;;;;;;20.68;48.57;99590.94;2215964;39;114017;-53
2021/05/10 07:23:56;;;;;;;;;;;;;;;20.68;48.72;99595.75;2216545;39;113626;-52
2021/05/10 07:25:28;;;;;;;;;;;;;;;20.68;48.38;99590.94;2210363;39;114181;-52
2021/05/10 07:26:59;;;;;;;;;;;;;;;20.70;48.60;99602.66;2213637;39;113988;-52
2021/05/10 07:28:32;;;;;;;;;;;;;;;20.72;48.66;99594.72;2214980;39;114079;-52
2021/05/10 07:30:03;;;;;;;;;;;;;;;20.73;48.23;99599.16;2212304;39;114149;-52
2021/05/10 07:31:35;;;;;;;;;;;;;;;20.74;48.19;99598.00;2209446;39;113869;-53
2021/05/10 07:33:07;;;;;;;;;;;;;;;20.76;48.01;99604.09;2214195;39;113807;-52
2021/05/10 07:34:38;;;;;;;;;;;;;;;20.75;48.50;99590.41;2213778;39;113760;-52
2021/05/10 07:36:09;;;;;;;;;;;;;;;20.74;48.37;99592.41;2216790;39;113937;-52
2021/05/10 07:37:41;;;;;;;;;;;;;;;20.75;48.33;99605.28;2214827;39;113883;-53
2021/05/10 07:39:12;;;;;;;;;;;;;;;20.75;48.32;99596.84;2217600;39;113785;-52
2021/05/10 07:40:43;;;;;;;;;;;;;;;20.76;48.82;99604.09;2210018;39;114326;-52
2021/05/10 07:42:15;;;;;;;;;;;;;;;20.78;48.51;99609.38;2214523;39;113989;-53
2021/05/10 07:43:46;;;;;;;;;;;;;;;20.78;48.51;99598.97;2216346;39;113978;-52
2021/05/10 07:45:19;;;;;;;;;;;;;;;20.79;48.24;99597.81;2208695;39;114844;-53
2021/05/10 07:46:50;;;;;;;;;;;;;;;20.79;48.57;99603.41;2214628;39;115283;-52
2021/05/10 07:48:21;;;;;;;;;;;;;;;20.80;48.31;99605.03;2216057;39;114115;-52
2021/05/10 07:49:53;;;;;;;;;;;;;;;20.80;48.55;99599.44;2213283;39;114112;-53
2021/05/10 07:51:25;;;;;;;;;;;;;;;20.81;48.23;99597.44;2215671;39;114140;-53
2021/05/10 07:52:56;;;;;;;;;;;;;;;20.81;48.52;99603.88;2210261;39;114435;-53
2021/05/10 07:54:28;;;;;;;;;;;;;;;20.82;48.15;99613.13;2214115;39;114780;-53
2021/05/10 07:55:59;;;;;;;;;;;;;;;20.81;48.32;99608.69;2214288;39;114896;-53
2021/05/10 07:57:31;;;;;;;;;;;;;;;20.81;48.60;99603.06;2215155;39;114513;-53
2021/05/10 07:59:03;;;;;;;;;;;;;;;20.80;48.33;99593.81;2216225;39;114725;-52
2021/05/10 08:00:38;;;;;;;;;;;;;;;20.80;48.14;99609.88;2208725;39;114050;-53